Time;durP1;ratioP1;P1;durP2;ratioP2;P2;SDS_P1;SDS_P2;PMS_P1;PMS_P2;Temp;Humidity;BMP_temperature;BMP_pressure;BME280_temperature;BME280_humidity;BME280_pressure;Samples;Min_cycle;Max_cycle;Signal;HPM_P1;HPM_P2
2021/07/11 00:00:43;0.00;0.00;0.62;0.00;0.00;0.62;10.80;9.90;;;28.30;36.60;;;;;;2273875;61;20435;-63
2021/07/11 00:03:09;0.00;0.00;0.62;0.00;0.00;0.62;10.00;9.20;;;28.30;36.60;;;;;;2273491;61;20387;-63
2021/07/11 00:05:36;0.00;0.00;0.62;0.00;0.00;0.62;9.67;8.77;;;28.30;36.60;;;;;;2273693;61;20352;-60
2021/07/11 00:08:03;0.00;0.00;0.62;0.00;0.00;0.62;9.00;8.30;;;28.30;36.60;;;;;;2273840;61;20426;-64
2021/07/11 00:10:31;0.00;0.00;0.62;0.00;0.00;0.62;9.33;8.53;;;28.30;36.60;;;;;;2273449;61;20368;-64
2021/07/11 00:12:58;0.00;0.00;0.62;0.00;0.00;0.62;10.00;9.10;;;28.30;36.60;;;;;;2273835;61;20372;-63
2021/07/11 00:15:26;0.00;0.00;0.62;0.00;0.00;0.62;10.97;10.00;;;28.30;36.60;;;;;;2274787;61;20352;-63
2021/07/11 00:17:55;0.00;0.00;0.62;0.00;0.00;0.62;9.73;8.80;;;28.30;36.60;;;;;;2274242;61;20355;-63
2021/07/11 00:20:24;0.00;0.00;0.62;0.00;0.00;0.62;9.57;8.67;;;28.30;36.60;;;;;;2274319;61;20356;-64
2021/07/11 00:22:50;0.00;0.00;0.62;0.00;0.00;0.62;9.50;8.70;;;28.30;36.60;;;;;;2277283;61;20757;-63
2021/07/11 00:25:17;0.00;0.00;0.62;0.00;0.00;0.62;9.37;8.57;;;28.30;36.60;;;;;;2276951;61;20380;-65
2021/07/11 00:27:46;0.00;0.00;0.62;0.00;0.00;0.62;9.30;8.50;;;28.30;36.60;;;;;;2274343;61;20609;-62
2021/07/11 00:30:15;0.00;0.00;0.62;0.00;0.00;0.62;9.57;8.67;;;28.30;36.70;;;;;;2274311;61;20351;-64
2021/07/11 00:32:42;0.00;0.00;0.62;0.00;0.00;0.62;11.30;10.37;;;28.30;36.70;;;;;;2274056;61;20568;-64
2021/07/11 00:35:11;0.00;0.00;0.62;0.00;0.00;0.62;10.27;9.27;;;28.30;36.70;;;;;;2274222;61;20614;-63
2021/07/11 00:37:37;0.00;0.00;0.62;0.00;0.00;0.62;10.90;9.90;;;28.30;36.70;;;;;;2274523;61;20358;-64
2021/07/11 00:40:06;0.00;0.00;0.62;0.00;0.00;0.62;10.07;9.20;;;28.30;36.70;;;;;;2274116;61;20359;-65
2021/07/11 00:42:33;0.00;0.00;0.62;0.00;0.00;0.62;10.43;9.53;;;28.30;36.70;;;;;;2274164;61;20418;-63
2021/07/11 00:45:03;0.00;0.00;0.62;0.00;0.00;0.62;10.07;9.07;;;28.30;36.70;;;;;;2277394;61;20367;-64
2021/07/11 00:47:36;0.00;0.00;0.62;0.00;0.00;0.62;9.23;8.43;;;28.30;36.70;;;;;;2276934;61;20356;-63
2021/07/11 00:50:06;0.00;0.00;0.62;0.00;0.00;0.62;9.13;8.27;;;28.30;36.70;;;;;;2277057;61;20360;-64
2021/07/11 00:52:32;0.00;0.00;0.62;0.00;0.00;0.62;9.83;8.97;;;28.30;36.70;;;;;;2274330;61;20414;-66
2021/07/11 00:54:59;0.00;0.00;0.62;0.00;0.00;0.62;9.80;9.00;;;28.20;36.70;;;;;;2277053;61;20391;-60
2021/07/11 00:57:28;0.00;0.00;0.62;0.00;0.00;0.62;10.00;9.10;;;28.20;36.70;;;;;;2277131;60;20579;-62
2021/07/11 00:59:55;0.00;0.00;0.62;0.00;0.00;0.62;10.30;9.37;;;28.20;36.70;;;;;;2277344;61;20348;-64
2021/07/11 01:02:34;0.00;0.00;0.62;0.00;0.00;0.62;9.43;8.57;;;28.20;36.70;;;;;;2276675;61;20413;-61
2021/07/11 01:05:08;0.00;0.00;0.62;0.00;0.00;0.62;9.20;8.30;;;28.20;36.70;;;;;;2277074;61;20456;-62
2021/07/11 01:07:46;0.00;0.00;0.62;0.00;0.00;0.62;10.13;9.33;;;28.20;36.70;;;;;;2277242;61;20345;-64
2021/07/11 01:10:18;0.00;0.00;0.62;0.00;0.00;0.62;9.77;8.97;;;28.20;36.70;;;;;;2273975;61;20419;-63
2021/07/11 01:12:50;0.00;0.00;0.62;0.00;0.00;0.62;9.53;8.73;;;28.20;36.70;;;;;;2276936;61;20739;-62
2021/07/11 01:15:19;0.00;0.00;0.62;0.00;0.00;0.62;12.10;10.00;;;28.20;36.70;;;;;;2277264;61;20355;-63
2021/07/11 01:17:53;0.00;0.00;0.62;0.00;0.00;0.62;9.13;8.33;;;28.20;36.70;;;;;;2276945;61;20340;-64
2021/07/11 01:20:35;0.00;0.00;0.62;0.00;0.00;0.62;9.50;8.60;;;28.20;36.70;;;;;;2274183;61;20424;-60
2021/07/11 01:23:06;0.00;0.00;0.62;0.00;0.00;0.62;9.50;8.60;;;28.20;36.80;;;;;;2277161;61;20453;-62
2021/07/11 01:25:37;0.00;0.00;0.62;0.00;0.00;0.62;9.73;8.93;;;28.20;36.80;;;;;;2276703;61;20626;-65
2021/07/11 01:28:07;0.00;0.00;0.62;0.00;0.00;0.62;9.97;9.07;;;28.20;36.80;;;;;;2277032;61;20421;-63
2021/07/11 01:30:36;0.00;0.00;0.62;0.00;0.00;0.62;12.00;9.40;;;28.20;36.80;;;;;;2274443;61;20356;-63
2021/07/11 01:33:06;0.00;0.00;0.62;0.00;0.00;0.62;9.57;8.77;;;28.20;36.80;;;;;;2276847;61;20377;-64
2021/07/11 01:35:35;0.00;0.00;0.62;0.00;0.00;0.62;10.00;9.10;;;28.20;36.80;;;;;;2276914;61;20348;-66
2021/07/11 01:38:03;0.00;0.00;0.62;0.00;0.00;0.62;8.90;8.10;;;28.20;36.90;;;;;;2277042;61;20385;-65
2021/07/11 01:40:31;0.00;0.00;0.62;0.00;0.00;0.62;10.13;9.20;;;28.20;36.90;;;;;;2276882;61;20384;-65
2021/07/11 01:43:00;0.00;0.00;0.62;0.00;0.00;0.62;9.53;8.73;;;28.20;36.90;;;;;;2276815;61;20421;-65
2021/07/11 01:45:28;0.00;0.00;0.62;0.00;0.00;0.62;9.60;8.67;;;28.20;36.90;;;;;;2277197;61;20435;-65
2021/07/11 01:47:56;0.00;0.00;0.62;0.00;0.00;0.62;9.33;8.53;;;28.20;36.90;;;;;;2276786;61;20356;-63
2021/07/11 01:50:24;0.00;0.00;0.62;0.00;0.00;0.62;8.70;7.90;;;28.20;36.90;;;;;;2276892;61;20592;-61
2021/07/11 01:52:53;0.00;0.00;0.62;0.00;0.00;0.62;9.33;8.53;;;28.10;36.90;;;;;;2277061;61;20598;-64
2021/07/11 01:55:21;0.00;0.00;0.62;0.00;0.00;0.62;10.03;9.03;;;28.10;36.80;;;;;;2276837;60;20348;-63
2021/07/11 01:57:49;0.00;0.00;0.62;0.00;0.00;0.62;9.53;8.63;;;28.10;36.80;;;;;;2276972;61;20433;-64
2021/07/11 02:00:21;0.00;0.00;0.62;0.00;0.00;0.62;9.43;8.40;;;28.10;36.80;;;;;;2277183;61;20356;-64
2021/07/11 02:02:50;0.00;0.00;0.62;0.00;0.00;0.62;8.67;7.97;;;28.10;36.80;;;;;;2276642;61;20376;-65
2021/07/11 02:05:27;0.00;0.00;0.62;0.00;0.00;0.62;9.37;8.60;;;28.10;36.80;;;;;;2274195;61;20360;-62
2021/07/11 02:07:57;0.00;0.00;0.62;0.00;0.00;0.62;9.50;8.70;;;28.10;36.80;;;;;;2277026;61;20344;-62
2021/07/11 02:10:24;0.00;0.00;0.62;0.00;0.00;0.62;9.60;8.80;;;28.10;36.80;;;;;;2276727;61;20438;-64
2021/07/11 02:13:10;0.00;0.00;0.62;0.00;0.00;0.62;9.13;8.27;;;28.10;36.80;;;;;;2276984;61;20406;-62
2021/07/11 02:15:46;0.00;0.00;0.62;0.00;0.00;0.62;9.17;8.47;;;28.10;36.90;;;;;;2276707;61;20348;-64
2021/07/11 02:18:18;0.00;0.00;0.62;0.00;0.00;0.62;9.17;8.43;;;28.10;36.90;;;;;;2276863;61;20348;-62
2021/07/11 02:20:52;0.00;0.00;0.62;0.00;0.00;0.62;8.43;7.67;;;28.10;36.90;;;;;;2276999;61;20356;-64
2021/07/11 02:23:25;0.00;0.00;0.62;0.00;0.00;0.62;9.10;8.30;;;28.10;36.90;;;;;;2273717;61;20367;-64
2021/07/11 02:25:53;0.00;0.00;0.62;0.00;0.00;0.62;9.23;8.33;;;28.10;37.00;;;;;;2273912;61;20356;-65
2021/07/11 02:28:22;0.00;0.00;0.62;0.00;0.00;0.62;8.10;7.40;;;28.10;37.00;;;;;;2276894;61;20382;-64
2021/07/11 02:30:56;0.00;0.00;0.62;0.00;0.00;0.62;9.40;8.60;;;28.10;37.10;;;;;;2273755;61;20348;-63
2021/07/11 02:33:37;0.00;0.00;0.62;0.00;0.00;0.62;9.10;8.30;;;28.10;37.10;;;;;;2274013;61;20380;-65
2021/07/11 02:36:10;0.00;0.00;0.62;0.00;0.00;0.62;9.63;8.80;;;28.10;37.10;;;;;;2274119;61;20360;-66
2021/07/11 02:38:44;0.00;0.00;0.62;0.00;0.00;0.62;9.70;8.93;;;28.00;37.00;;;;;;2273789;61;20348;-65
2021/07/11 02:41:14;0.00;0.00;0.62;0.00;0.00;0.62;9.10;8.30;;;28.00;37.00;;;;;;2276633;61;20443;-62
2021/07/11 02:43:42;0.00;0.00;0.62;0.00;0.00;0.62;9.03;8.23;;;28.00;37.00;;;;;;2277024;61;20602;-62
2021/07/11 02:46:17;0.00;0.00;0.62;0.00;0.00;0.62;8.40;7.70;;;28.00;37.00;;;;;;2276601;61;20400;-65
2021/07/11 02:48:45;0.00;0.00;0.62;0.00;0.00;0.62;8.93;8.13;;;28.00;37.00;;;;;;2273677;61;20372;-65
2021/07/11 02:51:18;0.00;0.00;0.62;0.00;0.00;0.62;9.33;8.53;;;28.00;37.00;;;;;;2276895;61;20357;-63
2021/07/11 02:53:51;0.00;0.00;0.62;0.00;0.00;0.62;9.77;8.87;;;28.00;37.00;;;;;;2276565;61;20379;-63
2021/07/11 02:56:19;0.00;0.00;0.62;0.00;0.00;0.62;8.87;8.07;;;28.00;37.10;;;;;;2273859;61;20609;-63
2021/07/11 02:58:48;0.00;0.00;0.62;0.00;0.00;0.62;9.23;8.43;;;28.00;37.00;;;;;;2276945;61;20671;-66
2021/07/11 03:01:18;0.00;0.00;0.62;0.00;0.00;0.62;9.10;8.40;;;28.00;37.10;;;;;;2276372;61;20360;-63
2021/07/11 03:03:49;0.00;0.00;0.62;0.00;0.00;0.62;9.40;8.60;;;28.00;37.10;;;;;;2273863;61;20381;-64
2021/07/11 03:06:17;0.00;0.00;0.62;0.00;0.00;0.62;12.43;9.17;;;28.00;37.00;;;;;;2276933;61;20355;-63
2021/07/11 03:08:46;0.00;0.00;0.62;0.00;0.00;0.62;9.10;8.30;;;28.00;37.00;;;;;;2276419;61;20763;-64
2021/07/11 03:11:25;0.00;0.00;0.62;0.00;0.00;0.62;9.97;9.17;;;28.00;37.00;;;;;;2276597;61;20367;-63
2021/07/11 03:13:55;0.00;0.00;0.62;0.00;0.00;0.62;9.90;9.10;;;28.00;37.10;;;;;;2276850;61;20372;-62
2021/07/11 03:16:25;0.00;0.00;0.62;0.00;0.00;0.62;9.73;8.73;;;28.00;37.10;;;;;;2276505;61;20345;-65
2021/07/11 03:18:56;0.00;0.00;0.62;0.00;0.00;0.62;9.97;9.17;;;28.00;37.00;;;;;;2276750;61;20356;-65
2021/07/11 03:21:24;0.00;0.00;0.62;0.00;0.00;0.62;9.80;9.00;;;27.90;37.00;;;;;;2276753;61;20353;-64
2021/07/11 03:23:53;0.00;0.00;0.62;0.00;0.00;0.62;9.27;8.47;;;28.00;37.10;;;;;;2276473;61;20381;-62
2021/07/11 03:26:23;0.00;0.00;0.62;0.00;0.00;0.62;8.37;7.73;;;27.90;37.00;;;;;;2276782;61;20352;-63
2021/07/11 03:28:51;0.00;0.00;0.62;0.00;0.00;0.62;9.40;8.60;;;27.90;37.00;;;;;;2273874;61;20383;-63
2021/07/11 03:31:22;0.00;0.00;0.62;0.00;0.00;0.62;9.50;8.70;;;27.90;37.00;;;;;;2273554;61;20447;-64
2021/07/11 03:33:53;0.00;0.00;0.62;0.00;0.00;0.62;9.57;8.77;;;27.90;37.00;;;;;;2276675;61;20364;-64
2021/07/11 03:36:23;0.00;0.00;0.62;0.00;0.00;0.62;9.33;8.63;;;27.90;37.00;;;;;;2276835;61;20360;-64
2021/07/11 03:38:56;0.00;0.00;0.62;0.00;0.00;0.62;9.10;8.30;;;27.90;37.00;;;;;;2273826;61;20356;-64
2021/07/11 03:41:27;0.00;0.00;0.62;0.00;0.00;0.62;9.77;8.87;;;27.90;37.00;;;;;;2273680;61;20704;-61
2021/07/11 03:43:57;0.00;0.00;0.62;0.00;0.00;0.62;9.53;8.73;;;27.90;37.00;;;;;;2273958;61;20372;-64
2021/07/11 03:46:29;0.00;0.00;0.62;0.00;0.00;0.62;8.87;8.07;;;27.90;37.10;;;;;;2273649;61;20344;-65
2021/07/11 03:49:01;0.00;0.00;0.62;0.00;0.00;0.62;9.57;8.80;;;27.90;37.10;;;;;;2274257;61;20376;-64
2021/07/11 03:51:33;0.00;0.00;0.62;0.00;0.00;0.62;9.73;8.93;;;27.90;37.10;;;;;;2274585;61;20360;-65
2021/07/11 03:54:01;0.00;0.00;0.62;0.00;0.00;0.62;8.50;7.80;;;27.90;37.10;;;;;;2274400;61;20371;-65
2021/07/11 03:56:31;0.00;0.00;0.62;0.00;0.00;0.62;9.87;9.07;;;27.80;37.10;;;;;;2274572;61;20359;-63
2021/07/11 03:58:59;0.00;0.00;0.62;0.00;0.00;0.62;9.33;8.63;;;27.80;37.00;;;;;;2274575;61;20588;-64
2021/07/11 04:01:29;0.00;0.00;0.62;0.00;0.00;0.62;9.47;8.70;;;27.80;37.10;;;;;;2274231;61;20384;-64
2021/07/11 04:03:58;0.00;0.00;0.62;0.00;0.00;0.62;9.30;8.53;;;27.80;37.10;;;;;;2274607;61;20364;-63
2021/07/11 04:06:28;0.00;0.00;0.62;0.00;0.00;0.62;9.57;8.77;;;27.80;37.10;;;;;;2274422;61;20436;-62
2021/07/11 04:08:58;0.00;0.00;0.62;0.00;0.00;0.62;9.27;8.57;;;27.80;37.10;;;;;;2274294;61;20364;-63
2021/07/11 04:11:25;0.00;0.00;0.62;0.00;0.00;0.62;9.57;8.77;;;27.80;37.20;;;;;;2277374;61;20368;-64
2021/07/11 04:13:52;0.00;0.00;0.62;0.00;0.00;0.62;9.67;8.87;;;27.80;37.10;;;;;;2274268;61;20748;-63
2021/07/11 04:16:23;0.00;0.00;0.62;0.00;0.00;0.62;10.30;9.20;;;27.80;37.20;;;;;;2274359;61;20355;-66
2021/07/11 04:18:52;0.00;0.00;0.62;0.00;0.00;0.62;9.57;8.77;;;27.80;37.30;;;;;;2277142;61;20359;-62
2021/07/11 04:21:21;0.00;0.00;0.62;0.00;0.00;0.62;9.30;8.50;;;27.80;37.30;;;;;;2274114;61;20542;-65
2021/07/11 04:23:49;0.00;0.00;0.62;0.00;0.00;0.62;9.40;8.70;;;27.80;37.30;;;;;;2274217;61;20447;-62
2021/07/11 04:26:16;0.00;0.00;0.62;0.00;0.00;0.62;9.07;8.27;;;27.80;37.30;;;;;;2277157;61;20397;-66
2021/07/11 04:28:44;0.00;0.00;0.62;0.00;0.00;0.62;9.70;8.90;;;27.80;37.30;;;;;;2274189;61;20376;-61
2021/07/11 04:31:11;0.00;0.00;0.62;0.00;0.00;0.62;9.87;8.80;;;27.80;37.30;;;;;;2273986;61;20477;-61
2021/07/11 04:33:38;0.00;0.00;0.62;0.00;0.00;0.62;10.70;8.53;;;27.80;37.30;;;;;;2274248;61;20367;-64
2021/07/11 04:36:07;0.00;0.00;0.62;0.00;0.00;0.62;10.47;9.47;;;27.80;37.30;;;;;;2274243;61;20375;-62
2021/07/11 04:38:36;0.00;0.00;0.62;0.00;0.00;0.62;9.67;8.87;;;27.70;37.30;;;;;;2274080;61;20371;-63
2021/07/11 04:41:04;0.00;0.00;0.62;0.00;0.00;0.62;9.27;8.57;;;27.80;37.40;;;;;;2274114;61;20349;-62
2021/07/11 04:43:31;0.00;0.00;0.62;0.00;0.00;0.62;9.40;8.60;;;27.70;37.30;;;;;;2274177;61;20383;-63
2021/07/11 04:45:57;0.00;0.00;0.62;0.00;0.00;0.62;10.73;9.87;;;27.80;37.40;;;;;;2276833;60;20790;-64
2021/07/11 04:48:24;0.00;0.00;0.62;0.00;0.00;0.62;10.00;9.10;;;27.70;37.30;;;;;;2274182;61;20391;-63
2021/07/11 04:50:50;0.00;0.00;0.62;0.00;0.00;0.62;9.97;9.07;;;27.70;37.30;;;;;;2274240;61;20489;-63
2021/07/11 04:53:17;0.00;0.00;0.62;0.00;0.00;0.62;9.53;8.77;;;27.70;37.30;;;;;;2273897;61;20431;-63
2021/07/11 04:55:48;0.00;0.00;0.62;0.00;0.00;0.62;9.93;9.03;;;27.70;37.30;;;;;;2274162;61;20356;-64
2021/07/11 04:58:15;0.00;0.00;0.62;0.00;0.00;0.62;9.10;8.40;;;27.70;37.30;;;;;;2274231;61;20344;-63
2021/07/11 05:00:42;0.00;0.00;0.62;0.00;0.00;0.62;9.43;8.63;;;27.70;37.40;;;;;;2276595;61;20359;-62
2021/07/11 05:03:09;0.00;0.00;0.62;0.00;0.00;0.62;8.70;8.00;;;27.70;37.40;;;;;;2274015;61;20387;-61
2021/07/11 05:05:36;0.00;0.00;0.62;0.00;0.00;0.62;8.90;8.20;;;27.70;37.40;;;;;;2274244;61;20708;-65
2021/07/11 05:08:03;0.00;0.00;0.62;0.00;0.00;0.62;8.90;8.20;;;27.70;37.40;;;;;;2273968;61;20352;-64
2021/07/11 05:10:29;0.00;0.00;0.62;0.00;0.00;0.62;10.70;9.80;;;27.70;37.40;;;;;;2274026;61;20628;-63
2021/07/11 05:12:57;0.00;0.00;0.62;0.00;0.00;0.62;11.77;10.77;;;27.70;37.30;;;;;;2274086;61;20575;-60
2021/07/11 05:15:24;0.00;0.00;0.62;0.00;0.00;0.62;10.80;9.90;;;27.70;37.40;;;;;;2274037;61;20356;-65
2021/07/11 05:17:50;0.00;0.00;0.62;0.00;0.00;0.62;11.30;10.30;;;27.70;37.30;;;;;;2274046;61;20575;-63
2021/07/11 05:20:17;0.00;0.00;0.62;0.00;0.00;0.62;11.17;10.27;;;27.70;37.30;;;;;;2274157;61;20359;-64
2021/07/11 05:22:43;0.00;0.00;0.62;0.00;0.00;0.62;10.67;9.73;;;27.70;37.30;;;;;;2273917;61;20617;-64
2021/07/11 05:25:11;0.00;0.00;0.62;0.00;0.00;0.62;11.50;9.20;;;27.70;37.30;;;;;;2273919;61;20699;-65
2021/07/11 05:27:37;0.00;0.00;0.62;0.00;0.00;0.62;10.50;9.60;;;27.70;37.40;;;;;;2274072;61;20357;-67
2021/07/11 05:30:07;0.00;0.00;0.62;0.00;0.00;0.62;10.27;9.37;;;27.70;37.40;;;;;;2274093;61;20384;-62
2021/07/11 05:32:33;0.00;0.00;0.62;0.00;0.00;0.62;11.80;10.80;;;27.70;37.50;;;;;;2273820;61;20376;-64
2021/07/11 05:35:00;0.00;0.00;0.62;0.00;0.00;0.62;11.30;9.47;;;27.70;37.40;;;;;;2274103;61;20692;-60
2021/07/11 05:37:27;0.00;0.00;0.62;0.00;0.00;0.62;10.40;9.50;;;27.70;37.40;;;;;;2274073;61;20353;-63
2021/07/11 05:39:53;0.00;0.00;0.62;0.00;0.00;0.62;10.93;10.03;;;27.70;37.40;;;;;;2274003;61;20353;-62
2021/07/11 05:42:20;0.00;0.00;0.62;0.00;0.00;0.62;12.80;9.20;;;27.70;37.40;;;;;;2273868;61;20419;-65
2021/07/11 05:44:46;0.00;0.00;0.62;0.00;0.00;0.62;12.23;11.10;;;27.70;37.40;;;;;;2274076;61;20742;-63
2021/07/11 05:47:14;0.00;0.00;0.62;0.00;0.00;0.62;10.90;9.90;;;27.70;37.40;;;;;;2276666;61;20360;-63
2021/07/11 05:49:40;0.00;0.00;0.62;0.00;0.00;0.62;10.70;9.90;;;27.70;37.40;;;;;;2274032;61;20387;-62
2021/07/11 05:52:07;0.00;0.00;0.62;0.00;0.00;0.62;11.00;10.10;;;27.70;37.40;;;;;;2273896;61;20352;-61
2021/07/11 05:54:34;0.00;0.00;0.62;0.00;0.00;0.62;9.87;8.90;;;27.70;37.40;;;;;;2273987;61;20396;-63
2021/07/11 05:57:01;0.00;0.00;0.62;0.00;0.00;0.62;10.60;9.70;;;27.70;37.50;;;;;;2274090;61;20356;-61
2021/07/11 05:59:27;0.00;0.00;0.62;0.00;0.00;0.62;10.53;9.53;;;27.70;37.40;;;;;;2274008;61;20702;-62
2021/07/11 06:01:54;0.00;0.00;0.62;0.00;0.00;0.62;10.73;9.90;;;27.70;37.50;;;;;;2273713;61;20393;-65
2021/07/11 06:04:22;0.00;0.00;0.62;0.00;0.00;0.62;11.20;10.20;;;27.70;37.60;;;;;;2273981;61;20369;-65
2021/07/11 06:06:48;0.00;0.00;0.62;0.00;0.00;0.62;9.50;8.80;;;27.70;37.60;;;;;;2274009;61;20363;-65
2021/07/11 06:09:15;0.00;0.00;0.62;0.00;0.00;0.62;10.30;9.40;;;27.70;37.60;;;;;;2273731;61;20379;-66
2021/07/11 06:11:41;0.00;0.00;0.62;0.00;0.00;0.62;9.87;9.00;;;27.70;37.60;;;;;;2273758;61;20681;-65
2021/07/11 06:14:08;0.00;0.00;0.62;0.00;0.00;0.62;9.87;8.97;;;27.80;37.60;;;;;;2273986;61;20372;-65
2021/07/11 06:16:35;0.00;0.00;0.62;0.00;0.00;0.62;10.23;9.20;;;27.80;37.60;;;;;;2273934;61;20379;-63
2021/07/11 06:19:01;0.00;0.00;0.62;0.00;0.00;0.62;9.57;8.80;;;27.80;37.60;;;;;;2274011;61;20359;-63
2021/07/11 06:21:30;0.00;0.00;0.62;0.00;0.00;0.62;10.03;9.20;;;27.80;37.60;;;;;;2273764;61;20352;-61
2021/07/11 06:23:56;0.00;0.00;0.62;0.00;0.00;0.62;12.30;11.20;;;27.80;37.60;;;;;;2273801;61;20384;-59
2021/07/11 06:26:23;0.00;0.00;0.62;0.00;0.00;0.62;9.83;9.10;;;27.80;37.50;;;;;;2273959;61;20355;-65
2021/07/11 06:28:52;0.00;0.00;0.62;0.00;0.00;0.62;11.57;10.67;;;27.90;37.60;;;;;;2273871;61;20451;-66
2021/07/11 06:31:19;0.00;0.00;0.62;0.00;0.00;0.62;10.53;9.53;;;27.90;37.60;;;;;;2273763;61;20430;-66
2021/07/11 06:33:45;0.00;0.00;0.62;0.00;0.00;0.62;11.30;10.40;;;27.90;37.50;;;;;;2276525;61;20364;-66
2021/07/11 06:36:12;0.00;0.00;0.62;0.00;0.00;0.62;10.00;9.20;;;27.90;37.40;;;;;;2273936;61;20359;-68
2021/07/11 06:38:40;0.00;0.00;0.62;0.00;0.00;0.62;10.50;9.70;;;27.90;37.50;;;;;;2273737;61;20371;-67
2021/07/11 06:41:06;0.00;0.00;0.62;0.00;0.00;0.62;10.63;9.73;;;27.90;37.50;;;;;;2273760;61;20360;-65
2021/07/11 06:43:33;0.00;0.00;0.62;0.00;0.00;0.62;9.90;9.00;;;27.90;37.40;;;;;;2273819;61;20600;-65
2021/07/11 06:46:00;0.00;0.00;0.62;0.00;0.00;0.62;11.73;10.63;;;27.90;37.40;;;;;;2273751;61;20627;-67
2021/07/11 06:48:27;0.00;0.00;0.62;0.00;0.00;0.62;11.80;10.77;;;27.90;37.40;;;;;;2273770;61;20474;-63
2021/07/11 06:50:55;0.00;0.00;0.62;0.00;0.00;0.62;13.13;11.93;;;27.90;37.40;;;;;;2273894;61;20394;-63
2021/07/11 06:53:21;0.00;0.00;0.62;0.00;0.00;0.62;11.67;10.47;;;27.90;37.50;;;;;;2273547;61;20453;-62
2021/07/11 06:55:49;0.00;0.00;0.62;0.00;0.00;0.62;11.77;9.57;;;27.90;37.60;;;;;;2273877;61;20683;-64
2021/07/11 06:58:15;0.00;0.00;0.62;0.00;0.00;0.62;10.53;9.63;;;27.90;37.70;;;;;;2273867;61;20390;-62
2021/07/11 07:00:42;0.00;0.00;0.62;0.00;0.00;0.62;10.40;9.50;;;27.90;37.60;;;;;;2273540;61;20352;-61
2021/07/11 07:03:08;0.00;0.00;0.62;0.00;0.00;0.62;11.47;10.50;;;27.90;37.60;;;;;;2273727;61;20448;-64
2021/07/11 07:05:35;0.00;0.00;0.62;0.00;0.00;0.62;12.00;10.90;;;28.00;37.70;;;;;;2273833;61;20356;-66
2021/07/11 07:08:02;0.00;0.00;0.62;0.00;0.00;0.62;11.45;10.55;;;28.00;37.60;;;;;;2273436;61;20378;-63
2021/07/11 07:10:30;0.00;0.00;0.62;0.00;0.00;0.62;10.53;9.73;;;28.00;37.60;;;;;;2273740;61;20265;-62
2021/07/11 07:12:58;0.00;0.00;0.62;0.00;0.00;0.62;10.60;9.63;;;28.00;37.50;;;;;;2273791;61;20368;-64
2021/07/11 07:15:24;0.00;0.00;0.62;0.00;0.00;0.62;11.67;10.77;;;28.00;37.50;;;;;;2273559;61;20689;-62
2021/07/11 07:17:51;0.00;0.00;0.62;0.00;0.00;0.62;12.10;11.10;;;28.00;37.50;;;;;;2273824;61;20689;-66
2021/07/11 07:20:18;0.00;0.00;0.62;0.00;0.00;0.62;11.53;10.43;;;28.00;37.40;;;;;;2273761;61;20352;-66
2021/07/11 07:22:44;0.00;0.00;0.62;0.00;0.00;0.62;11.43;10.40;;;28.00;37.40;;;;;;2273153;61;20630;-64
2021/07/11 07:25:14;0.00;0.00;0.62;0.00;0.00;0.62;11.00;10.00;;;28.00;37.40;;;;;;2273707;61;20356;-65
2021/07/11 07:27:41;0.00;0.00;0.62;0.00;0.00;0.62;11.37;10.27;;;28.00;37.40;;;;;;2273673;61;20727;-64
2021/07/11 07:30:15;0.00;0.00;0.62;0.00;0.00;0.62;12.10;11.00;;;28.00;37.30;;;;;;2273496;61;20380;-64
2021/07/11 07:32:42;0.00;0.00;0.62;0.00;0.00;0.62;11.40;10.40;;;28.00;37.30;;;;;;2273603;61;20603;-63
2021/07/11 07:35:09;0.00;0.00;0.62;0.00;0.00;0.62;11.10;10.20;;;28.00;37.30;;;;;;2273784;61;20352;-62
2021/07/11 07:37:36;0.00;0.00;0.62;0.00;0.00;0.62;12.20;11.20;;;28.00;37.30;;;;;;2273468;61;20469;-60
2021/07/11 07:40:05;0.00;0.00;0.62;0.00;0.00;0.62;11.10;10.10;;;28.00;37.30;;;;;;2273710;61;20686;-63
2021/07/11 07:42:32;0.00;0.00;0.62;0.00;0.00;0.62;12.53;11.47;;;28.00;37.40;;;;;;2273532;61;20379;-64
2021/07/11 07:44:59;0.00;0.00;0.62;0.00;0.00;0.62;16.80;12.53;;;28.10;37.50;;;;;;2273440;61;20359;-62
2021/07/11 07:47:27;0.00;0.00;0.62;0.00;0.00;0.62;11.17;10.27;;;28.10;37.40;;;;;;2273601;61;20348;-60
2021/07/11 07:49:54;0.00;0.00;0.62;0.00;0.00;0.62;11.93;10.93;;;28.10;37.30;;;;;;2273626;61;20380;-61
2021/07/11 07:52:20;0.00;0.00;0.62;0.00;0.00;0.62;12.47;11.37;;;28.10;37.40;;;;;;2273323;61;20612;-62
2021/07/11 07:54:47;0.00;0.00;0.62;0.00;0.00;0.62;12.93;11.83;;;28.10;37.30;;;;;;2273644;61;20371;-61
2021/07/11 07:57:15;0.00;0.00;0.62;0.00;0.00;0.62;10.80;9.90;;;28.10;37.30;;;;;;2273627;61;20366;-64
2021/07/11 07:59:42;0.00;0.00;0.62;0.00;0.00;0.62;12.77;11.53;;;28.10;37.30;;;;;;2273396;61;20645;-64
2021/07/11 08:02:09;0.00;0.00;0.62;0.00;0.00;0.62;13.03;11.83;;;28.10;37.30;;;;;;2273631;61;20340;-64
2021/07/11 08:04:36;0.00;0.00;0.62;0.00;0.00;0.62;11.57;10.27;;;28.10;37.30;;;;;;2273628;61;20352;-64
2021/07/11 08:07:03;0.00;0.00;0.62;0.00;0.00;0.62;10.77;9.90;;;28.10;37.30;;;;;;2273467;61;20401;-61
2021/07/11 08:09:30;0.00;0.00;0.62;0.00;0.00;0.62;12.20;11.10;;;28.10;37.30;;;;;;2273432;61;20387;-63
2021/07/11 08:11:57;0.00;0.00;0.62;0.00;0.00;0.62;12.67;11.50;;;28.10;37.30;;;;;;2273558;61;20352;-64
2021/07/11 08:14:23;0.00;0.00;0.62;0.00;0.00;0.62;12.73;11.63;;;28.10;37.30;;;;;;2273410;61;20376;-61
2021/07/11 08:16:50;0.00;0.00;0.62;0.00;0.00;0.62;12.67;11.67;;;28.10;37.40;;;;;;2273629;61;20467;-60
2021/07/11 08:19:16;0.00;0.00;0.62;0.00;0.00;0.62;12.70;11.60;;;28.10;37.40;;;;;;2273634;61;20427;-61
2021/07/11 08:21:44;0.00;0.00;0.62;0.00;0.00;0.62;12.73;11.53;;;28.10;37.40;;;;;;2273181;61;20363;-63
2021/07/11 08:24:11;0.00;0.00;0.62;0.00;0.00;0.62;13.60;12.50;;;28.10;37.40;;;;;;2273480;61;20376;-62
2021/07/11 08:26:37;0.00;0.00;0.62;0.00;0.00;0.62;12.70;11.70;;;28.10;37.40;;;;;;2273609;61;20619;-63
2021/07/11 08:29:04;0.00;0.00;0.62;0.00;0.00;0.62;12.23;11.27;;;28.10;37.40;;;;;;2273324;61;20376;-64
2021/07/11 08:31:30;0.00;0.00;0.62;0.00;0.00;0.62;12.57;11.47;;;28.10;37.40;;;;;;2273433;61;20349;-61
2021/07/11 08:33:57;0.00;0.00;0.62;0.00;0.00;0.62;12.30;11.30;;;28.10;37.40;;;;;;2273809;61;20544;-64
2021/07/11 08:36:23;0.00;0.00;0.62;0.00;0.00;0.62;11.93;10.93;;;28.10;37.40;;;;;;2274069;61;20348;-61
2021/07/11 08:38:51;0.00;0.00;0.62;0.00;0.00;0.62;11.33;10.40;;;28.10;37.40;;;;;;2274252;61;20348;-62
2021/07/11 08:41:18;0.00;0.00;0.62;0.00;0.00;0.62;11.90;10.80;;;28.10;37.30;;;;;;2274110;61;20397;-64
2021/07/11 08:43:45;0.00;0.00;0.62;0.00;0.00;0.62;12.60;11.50;;;28.10;37.30;;;;;;2274024;61;20497;-60
2021/07/11 08:46:12;0.00;0.00;0.62;0.00;0.00;0.62;12.80;11.63;;;28.10;37.30;;;;;;2274205;61;20352;-65
2021/07/11 08:48:40;0.00;0.00;0.62;0.00;0.00;0.62;12.00;11.00;;;28.10;37.20;;;;;;2274134;61;20633;-64
2021/07/11 08:51:06;0.00;0.00;0.62;0.00;0.00;0.62;12.23;11.33;;;28.10;37.20;;;;;;2273889;61;20692;-63
2021/07/11 08:53:47;;;;;;;;;;;;;;;;;;;;;
2021/07/11 08:56:20;0.00;0.00;0.62;0.00;0.00;0.62;11.23;10.30;;;28.10;37.20;;;;;;2274090;61;20359;-63
2021/07/11 08:58:51;0.00;0.00;0.62;0.00;0.00;0.62;13.77;11.83;;;28.10;37.20;;;;;;2273988;61;20357;-63
2021/07/11 09:01:20;0.00;0.00;0.62;0.00;0.00;0.62;12.07;11.17;;;28.10;37.20;;;;;;2274046;61;20356;-63
2021/07/11 09:04:02;0.00;0.00;0.62;0.00;0.00;0.62;10.13;9.30;;;28.10;37.20;;;;;;2274092;61;20375;-61
2021/07/11 09:06:46;0.00;0.00;0.62;0.00;0.00;0.62;9.63;8.87;;;28.10;37.20;;;;;;2276846;61;20356;-63
2021/07/11 09:09:22;0.00;0.00;0.62;0.00;0.00;0.62;10.97;9.97;;;28.10;37.20;;;;;;2274043;61;20380;-64
2021/07/11 09:11:54;0.00;0.00;0.62;0.00;0.00;0.62;11.03;10.13;;;28.10;37.20;;;;;;2274031;61;20354;-63
2021/07/11 09:14:22;0.00;0.00;0.62;0.00;0.00;0.62;11.37;10.40;;;28.10;37.30;;;;;;2273961;61;20380;-66
2021/07/11 09:16:50;0.00;0.00;0.62;0.00;0.00;0.62;11.53;10.43;;;28.10;37.30;;;;;;2274144;61;20348;-64
2021/07/11 09:19:26;0.00;0.00;0.62;0.00;0.00;0.62;11.00;10.10;;;28.20;37.30;;;;;;2274080;61;20497;-62
2021/07/11 09:21:56;0.00;0.00;0.62;0.00;0.00;0.62;10.13;9.23;;;28.20;37.20;;;;;;2273731;61;20401;-60
2021/07/11 09:24:24;0.00;0.00;0.62;0.00;0.00;0.62;10.63;9.73;;;28.20;37.20;;;;;;2274053;61;20414;-61
2021/07/11 09:26:55;0.00;0.00;0.62;0.00;0.00;0.62;10.20;9.30;;;28.20;37.90;;;;;;2274098;61;20423;-63
2021/07/11 09:29:29;0.00;0.00;0.62;0.00;0.00;0.62;10.40;9.60;;;28.20;37.20;;;;;;2273822;61;20402;-62
2021/07/11 09:31:57;0.00;0.00;0.62;0.00;0.00;0.62;9.70;8.90;;;28.20;37.20;;;;;;2273997;61;20356;-64
2021/07/11 09:34:26;0.00;0.00;0.62;0.00;0.00;0.62;11.23;10.20;;;28.20;37.20;;;;;;2273921;61;20404;-62
2021/07/11 09:37:11;0.00;0.00;0.62;0.00;0.00;0.62;11.07;10.17;;;28.20;37.10;;;;;;2274031;61;20584;-64
2021/07/11 09:39:48;0.00;0.00;0.62;0.00;0.00;0.62;9.83;9.13;;;28.20;37.10;;;;;;2274085;61;20344;-60
2021/07/11 09:42:31;0.00;0.00;0.62;0.00;0.00;0.62;10.13;9.30;;;28.20;37.10;;;;;;2273701;61;20390;-61
2021/07/11 09:45:00;0.00;0.00;0.62;0.00;0.00;0.62;10.63;9.60;;;28.20;37.10;;;;;;2276760;60;20361;-61